createdAt,value
2023-02-22T00:00:46.123Z,100820.00
2023-02-22T00:03:17.746Z,100829.25
2023-02-22T00:05:47.068Z,100824.63
2023-02-22T00:08:15.832Z,100823.56
2023-02-22T00:10:42.449Z,100820.31
2023-02-22T00:13:11.011Z,100820.31
2023-02-22T00:15:37.704Z,100816.28
2023-02-22T00:18:05.344Z,100807.63
2023-02-22T00:20:31.805Z,100816.31
2023-02-22T00:22:58.192Z,100808.19
2023-02-22T00:25:25.602Z,100811.41
2023-02-22T00:27:52.880Z,100811.16
2023-02-22T00:30:23.994Z,100809.81
2023-02-22T00:32:51.081Z,100813.41
2023-02-22T00:35:21.030Z,100820.72
2023-02-22T00:37:48.788Z,100814.22
2023-02-22T00:40:20.674Z,100808.03
2023-02-22T00:42:47.773Z,100807.75
2023-02-22T00:45:17.768Z,100805.28
2023-02-22T00:47:44.241Z,100811.00
2023-02-22T00:50:11.538Z,100807.75
2023-02-22T00:52:38.618Z,100806.13
2023-02-22T00:55:07.814Z,100804.81
2023-02-22T00:57:37.089Z,100796.06
2023-02-22T01:00:12.475Z,100801.50
2023-02-22T01:02:39.971Z,100799.88
2023-02-22T01:05:08.514Z,100804.28
2023-02-22T01:07:35.252Z,100798.56
2023-02-22T01:10:02.879Z,100806.44
2023-02-22T01:12:30.140Z,100797.22
2023-02-22T01:14:58.131Z,100797.22
2023-02-22T01:17:25.561Z,100796.19
2023-02-22T01:19:54.009Z,100790.78
2023-02-22T01:22:21.355Z,100783.72
2023-02-22T01:24:51.364Z,100786.97
2023-02-22T01:27:18.277Z,100787.22
2023-02-22T01:29:50.877Z,100784.25
2023-02-22T01:32:17.363Z,100782.38
2023-02-22T01:34:43.741Z,100779.94
2023-02-22T01:37:10.116Z,100780.22
2023-02-22T01:39:36.508Z,100780.22
2023-02-22T01:42:03.085Z,100774.28
2023-02-22T01:44:32.974Z,100774.84
2023-02-22T01:47:02.103Z,100776.44
2023-02-22T01:49:50.402Z,100774.53
2023-02-22T01:52:20.181Z,100771.78
2023-02-22T01:54:54.416Z,100779.06
2023-02-22T01:57:32.375Z,100764.47
2023-02-22T02:00:11.871Z,100771.81
2023-02-22T02:02:45.495Z,100761.53
2023-02-22T02:05:13.215Z,100760.44
2023-02-22T02:07:40.963Z,100771.56
2023-02-22T02:10:14.503Z,100772.66
2023-02-22T02:12:46.243Z,100763.97
2023-02-22T02:15:25.360Z,100762.59
2023-02-22T02:17:54.207Z,100759.09
2023-02-22T02:20:29.490Z,100762.38
2023-02-22T02:23:32.197Z,100760.97
2023-02-22T02:26:13.699Z,100755.81
2023-02-22T02:29:01.855Z,100751.75
2023-02-22T02:31:40.128Z,100756.63
2023-02-22T02:34:34.751Z,100752.03
2023-02-22T02:37:27.332Z,100752.28
2023-02-22T02:40:11.885Z,100752.03
2023-02-22T02:42:48.960Z,100745.78
2023-02-22T02:45:21.539Z,100749.03
2023-02-22T02:47:54.676Z,100750.41
2023-02-22T02:50:37.670Z,100753.13
2023-02-22T02:53:08.224Z,100745.31
2023-02-22T02:55:36.794Z,100744.25
2023-02-22T02:58:07.590Z,100748.38
2023-02-22T03:00:39.654Z,100744.56
2023-02-22T03:03:09.027Z,100735.63
2023-02-22T03:05:39.199Z,100742.09
2023-02-22T03:08:17.709Z,100734.22
2023-02-22T03:11:01.851Z,100729.13
2023-02-22T03:13:36.887Z,100728.84
2023-02-22T03:16:36.494Z,100731.28
2023-02-22T03:19:07.662Z,100724.25
2023-02-22T03:21:47.883Z,100727.72
2023-02-22T03:24:32.922Z,100719.31
2023-02-22T03:27:09.287Z,100723.91
2023-02-22T03:29:40.648Z,100717.94
2023-02-22T03:32:11.860Z,100722.03
2023-02-22T03:34:43.641Z,100716.66
2023-02-22T03:37:19.886Z,100723.44
2023-02-22T03:39:49.412Z,100718.56
2023-02-22T03:42:21.790Z,100718.03
2023-02-22T03:44:51.418Z,100719.06
2023-02-22T03:47:23.182Z,100721.50
2023-02-22T03:49:56.172Z,100719.03
2023-02-22T03:52:25.766Z,100713.88
2023-02-22T03:54:55.949Z,100724.66
2023-02-22T03:57:38.103Z,100733.41
2023-02-22T04:00:08.022Z,100723.66
2023-02-22T04:02:34.734Z,100722.56
2023-02-22T04:05:01.279Z,100723.66
2023-02-22T04:07:27.770Z,100729.63
2023-02-22T04:09:54.192Z,100719.38
2023-02-22T04:12:20.651Z,100720.72
2023-02-22T04:14:47.127Z,100719.66
2023-02-22T04:17:13.555Z,100721.59
2023-02-22T04:19:40.004Z,100717.81
2023-02-22T04:22:06.386Z,100716.75
2023-02-22T04:24:32.989Z,100718.91
2023-02-22T04:26:59.401Z,100723.25
2023-02-22T04:29:25.820Z,100719.72
2023-02-22T04:31:52.352Z,100711.59
2023-02-22T04:34:18.803Z,100703.72
2023-02-22T04:36:45.243Z,100704.22
2023-02-22T04:39:11.670Z,100698.78
2023-02-22T04:41:38.201Z,100699.56
2023-02-22T04:44:04.866Z,100701.47
2023-02-22T04:46:31.442Z,100700.09
2023-02-22T04:48:58.963Z,100704.13
2023-02-22T04:51:25.497Z,100699.56
2023-02-22T04:53:51.963Z,100700.38
2023-02-22T04:56:19.619Z,100695.47
2023-02-22T04:58:46.153Z,100692.25
2023-02-22T05:01:12.550Z,100701.22
2023-02-22T05:03:39.041Z,100698.22
2023-02-22T05:06:05.788Z,100695.53
2023-02-22T05:08:32.436Z,100693.34
2023-02-22T05:10:58.935Z,100686.31
2023-02-22T05:13:25.425Z,100685.72
2023-02-22T05:15:52.101Z,100691.13
2023-02-22T05:18:18.606Z,100684.34
2023-02-22T05:20:45.056Z,100685.22
2023-02-22T05:23:11.478Z,100686.84
2023-02-22T05:25:38.582Z,100685.22
2023-02-22T05:28:11.668Z,100688.75
2023-02-22T05:30:40.994Z,100686.84
2023-02-22T05:33:09.175Z,100681.75
2023-02-22T05:35:37.138Z,100683.66
2023-02-22T05:38:04.354Z,100680.16
2023-02-22T05:40:31.432Z,100680.41
2023-02-22T05:42:58.686Z,100686.66
2023-02-22T05:45:28.052Z,100682.03
2023-02-22T05:47:55.005Z,100680.16
2023-02-22T05:50:22.005Z,100681.75
2023-02-22T05:52:48.819Z,100680.66
2023-02-22T05:55:17.451Z,100678.19
2023-02-22T05:57:44.008Z,100677.94
2023-02-22T06:00:15.468Z,100674.47
2023-02-22T06:02:41.897Z,100672.38
2023-02-22T06:05:08.631Z,100681.03
2023-02-22T06:07:35.206Z,100675.91
2023-02-22T06:10:01.653Z,100682.13
2023-02-22T06:12:28.060Z,100686.75
2023-02-22T06:14:54.557Z,100689.72
2023-02-22T06:17:20.992Z,100691.28
2023-02-22T06:19:47.437Z,100690.47
2023-02-22T06:22:18.902Z,100686.41
2023-02-22T06:24:45.565Z,100690.22
2023-02-22T06:27:12.099Z,100692.41
2023-02-22T06:29:38.642Z,100691.34
2023-02-22T06:32:05.428Z,100688.91
2023-02-22T06:34:32.383Z,100706.25
2023-02-22T06:37:00.071Z,100701.09
2023-02-22T06:39:26.625Z,100703.28
2023-02-22T06:41:55.181Z,100707.06
2023-02-22T06:44:21.952Z,100700.53
2023-02-22T06:46:52.833Z,100706.28
2023-02-22T06:49:20.340Z,100706.78
2023-02-22T06:51:47.558Z,100696.22
2023-02-22T06:54:14.536Z,100705.97
2023-02-22T06:56:41.370Z,100711.88
2023-02-22T06:59:08.392Z,100705.44
2023-02-22T07:01:35.122Z,100710.84
2023-02-22T07:04:01.859Z,100704.63
2023-02-22T07:06:28.275Z,100709.22
2023-02-22T07:08:54.859Z,100698.38
2023-02-22T07:11:21.271Z,100703.00
2023-02-22T07:13:47.697Z,100698.91
2023-02-22T07:16:14.182Z,100705.44
2023-02-22T07:18:40.625Z,100711.88
2023-02-22T07:21:07.657Z,100714.31
2023-02-22T07:23:34.141Z,100714.84
2023-02-22T07:26:01.778Z,100713.16
2023-02-22T07:28:28.472Z,100721.75
2023-02-22T07:30:55.164Z,100713.06
2023-02-22T07:33:21.597Z,100713.34
2023-02-22T07:35:50.637Z,100713.06
2023-02-22T07:38:18.151Z,100704.38
2023-02-22T07:40:45.098Z,100714.16
2023-02-22T07:43:23.533Z,100710.34
2023-02-22T07:45:51.981Z,100704.91
2023-02-22T07:48:20.095Z,100700.59
2023-02-22T07:50:47.282Z,100702.75
2023-02-22T07:53:18.041Z,100705.44
2023-02-22T07:55:45.055Z,100694.88
2023-02-22T07:58:15.724Z,100697.03
2023-02-22T08:00:44.073Z,100697.03
2023-02-22T08:03:13.297Z,100703.78
2023-02-22T08:05:42.171Z,100699.41
2023-02-22T08:08:08.804Z,100704.56
2023-02-22T08:10:36.327Z,100698.72
2023-02-22T08:13:04.593Z,100703.34
2023-02-22T08:15:34.565Z,100707.38
2023-02-22T08:18:02.833Z,100696.53
2023-02-22T08:20:30.333Z,100703.03
2023-02-22T08:22:58.007Z,100704.38
2023-02-22T08:25:27.393Z,100701.38
2023-02-22T08:27:58.905Z,100696.16
2023-02-22T08:30:25.915Z,100704.53
2023-02-22T08:32:52.498Z,100697.47
2023-02-22T08:35:22.962Z,100695.78
2023-02-22T08:37:55.308Z,100703.63
2023-02-22T08:40:24.944Z,100709.78
2023-02-22T08:42:52.023Z,100704.31
2023-02-22T08:45:18.495Z,100704.72
2023-02-22T08:47:45.231Z,100713.09
2023-02-22T08:50:18.574Z,100712.19
2023-02-22T08:52:45.050Z,100706.41
2023-02-22T08:55:11.448Z,100706.50
2023-02-22T08:57:37.970Z,100709.00
2023-02-22T09:00:05.812Z,100703.50
2023-02-22T09:02:32.268Z,100707.00
2023-02-22T09:04:58.689Z,100703.75
2023-02-22T09:07:25.154Z,100701.97
2023-02-22T09:09:51.539Z,100706.09
2023-02-22T09:12:17.973Z,100704.16
2023-02-22T09:14:44.478Z,100702.97
2023-02-22T09:17:10.891Z,100706.00
2023-02-22T09:19:37.304Z,100701.47
2023-02-22T09:22:03.770Z,100700.84
2023-02-22T09:24:30.812Z,100697.31
2023-02-22T09:26:59.190Z,100697.38
2023-02-22T09:29:27.578Z,100694.50
2023-02-22T09:31:55.909Z,100697.06
2023-02-22T09:34:29.481Z,100685.75
2023-02-22T09:36:57.760Z,100695.53
2023-02-22T09:39:24.968Z,100695.91
2023-02-22T09:42:23.955Z,100689.19
2023-02-22T09:45:28.761Z,100679.53
2023-02-22T09:48:15.222Z,100682.66
2023-02-22T09:50:51.313Z,100672.59
2023-02-22T09:53:42.081Z,100669.66
2023-02-22T09:56:11.938Z,100673.81
2023-02-22T09:58:42.901Z,100669.09
2023-02-22T10:01:47.599Z,100663.53
2023-02-22T10:04:41.298Z,100664.16
2023-02-22T10:07:14.907Z,100662.16
2023-02-22T10:09:43.379Z,100661.22
2023-02-22T10:12:18.642Z,100656.81
2023-02-22T10:15:06.275Z,100646.59
2023-02-22T10:17:40.215Z,100640.72
2023-02-22T10:20:21.335Z,100640.84
2023-02-22T10:23:29.040Z,100638.56
2023-02-22T10:26:09.266Z,100634.41
2023-02-22T10:28:42.324Z,100638.00
2023-02-22T10:31:12.378Z,100630.84
2023-02-22T10:33:46.358Z,100625.84
2023-02-22T10:36:20.114Z,100631.34
2023-02-22T10:39:30.423Z,100626.31
2023-02-22T10:42:05.787Z,100628.41
2023-02-22T10:44:36.554Z,100626.75
2023-02-22T10:47:07.080Z,100621.03
2023-02-22T10:49:41.239Z,100618.63
2023-02-22T10:52:22.413Z,100612.19
2023-02-22T10:54:51.748Z,100609.78
2023-02-22T10:57:25.448Z,100611.13
2023-02-22T10:59:52.201Z,100619.75
2023-02-22T11:02:21.522Z,100608.97
2023-02-22T11:04:57.028Z,100608.19
2023-02-22T11:07:33.449Z,100607.41
2023-02-22T11:10:04.318Z,100614.66
2023-02-22T11:12:39.549Z,100608.25
2023-02-22T11:15:18.768Z,100603.31
2023-02-22T11:17:47.373Z,100608.44
2023-02-22T11:20:25.644Z,100605.22
2023-02-22T11:22:54.693Z,100603.00
2023-02-22T11:25:26.325Z,100593.28
2023-02-22T11:27:54.444Z,100595.00
2023-02-22T11:30:33.177Z,100591.94
2023-02-22T11:33:03.119Z,100580.31
2023-02-22T11:35:29.479Z,100582.91
2023-02-22T11:38:33.083Z,100584.97
2023-02-22T11:41:14.987Z,100574.69
2023-02-22T11:43:47.298Z,100566.53
2023-02-22T11:46:18.241Z,100566.59
2023-02-22T11:49:00.580Z,100562.13
2023-02-22T11:51:33.284Z,100556.56
2023-02-22T11:54:11.724Z,100551.91
2023-02-22T11:56:46.839Z,100554.03
2023-02-22T11:59:29.402Z,100551.63
2023-02-22T12:02:00.395Z,100551.22
2023-02-22T12:04:57.024Z,100545.50
2023-02-22T12:07:37.224Z,100543.91
2023-02-22T12:10:14.498Z,100535.66
2023-02-22T12:13:10.075Z,100532.13
2023-02-22T12:15:49.680Z,100539.63
2023-02-22T12:18:36.314Z,100519.56
2023-02-22T12:21:10.200Z,100533.06
2023-02-22T12:23:59.715Z,100535.28
2023-02-22T12:26:38.672Z,100531.13
2023-02-22T12:29:24.664Z,100524.88
2023-02-22T12:31:58.361Z,100528.91
2023-02-22T12:34:57.521Z,100534.38
2023-02-22T12:37:32.693Z,100524.88
2023-02-22T12:40:30.300Z,100527.09
2023-02-22T12:43:05.415Z,100530.38
2023-02-22T12:46:20.134Z,100533.41
2023-02-22T12:49:00.889Z,100527.53
2023-02-22T12:51:30.212Z,100529.22
2023-02-22T12:54:07.599Z,100530.06
2023-02-22T12:56:41.815Z,100523.41
2023-02-22T12:59:20.955Z,100520.72
2023-02-22T13:01:54.755Z,100521.84
2023-02-22T13:04:22.216Z,100520.44
2023-02-22T13:07:01.258Z,100520.44
2023-02-22T13:09:56.272Z,100509.25
2023-02-22T13:12:31.429Z,100518.38
2023-02-22T13:15:10.635Z,100520.56
2023-02-22T13:17:52.605Z,100513.19
2023-02-22T13:20:27.218Z,100508.03
2023-02-22T13:23:19.130Z,100504.81
2023-02-22T13:25:59.173Z,100508.13
2023-02-22T13:28:36.353Z,100499.25
2023-02-22T13:31:31.273Z,100489.31
2023-02-22T13:34:13.107Z,100493.22
2023-02-22T13:37:11.699Z,100492.69
2023-02-22T13:40:09.896Z,100494.63
2023-02-22T13:42:39.189Z,100487.41
2023-02-22T13:45:35.195Z,100487.41
2023-02-22T13:48:07.574Z,100493.84
2023-02-22T13:50:51.610Z,100493.34
2023-02-22T13:53:25.157Z,100489.97
2023-02-22T13:55:58.120Z,100483.88
2023-02-22T13:58:24.973Z,100487.25
2023-02-22T14:00:57.252Z,100484.03
2023-02-22T14:03:36.004Z,100483.84
2023-02-22T14:06:05.201Z,100476.75
2023-02-22T14:08:31.617Z,100482.88
2023-02-22T14:11:12.473Z,100476.13
2023-02-22T14:14:00.934Z,100466.94
2023-02-22T14:16:29.786Z,100477.69
2023-02-22T14:19:22.976Z,100461.13
2023-02-22T14:22:01.839Z,100466.56
2023-02-22T14:24:30.864Z,100460.44
2023-02-22T14:27:04.390Z,100466.22
2023-02-22T14:29:31.453Z,100465.72
2023-02-22T14:32:02.955Z,100458.03
2023-02-22T14:34:42.988Z,100461.03
2023-02-22T14:37:13.090Z,100449.66
2023-02-22T14:39:52.242Z,100447.03
2023-02-22T14:42:27.927Z,100453.44
2023-02-22T14:45:04.855Z,100446.97
2023-02-22T14:47:50.442Z,100451.31
2023-02-22T14:50:23.420Z,100440.66
2023-02-22T14:53:03.242Z,100444.81
2023-02-22T14:55:33.389Z,100439.66
2023-02-22T14:58:08.757Z,100449.13
2023-02-22T15:00:41.968Z,100446.81
2023-02-22T15:03:29.110Z,100439.63
2023-02-22T15:05:59.222Z,100439.41
2023-02-22T15:08:28.446Z,100440.63
2023-02-22T15:10:54.947Z,100443.00
2023-02-22T15:13:27.395Z,100441.41
2023-02-22T15:16:07.810Z,100439.13
2023-02-22T15:18:34.297Z,100437.63
2023-02-22T15:21:25.538Z,100433.59
2023-02-22T15:24:00.975Z,100425.72
2023-02-22T15:26:44.204Z,100435.81
2023-02-22T15:29:30.878Z,100435.28
2023-02-22T15:31:58.397Z,100427.41
2023-02-22T15:34:32.643Z,100430.28
2023-02-22T15:37:19.850Z,100429.06
2023-02-22T15:39:46.280Z,100428.88
2023-02-22T15:42:20.759Z,100423.84
2023-02-22T15:44:48.998Z,100422.66
2023-02-22T15:47:26.057Z,100417.63
2023-02-22T15:50:25.837Z,100418.88
2023-02-22T15:52:59.587Z,100414.66
2023-02-22T15:55:49.828Z,100414.56
2023-02-22T15:58:16.180Z,100416.28
2023-02-22T16:00:45.248Z,100423.78
2023-02-22T16:03:16.739Z,100420.66
2023-02-22T16:05:50.286Z,100419.16
2023-02-22T16:08:29.280Z,100425.00
2023-02-22T16:11:02.377Z,100426.72
2023-02-22T16:13:37.642Z,100427.75
2023-02-22T16:16:27.913Z,100431.38
2023-02-22T16:19:36.311Z,100428.75
2023-02-22T16:22:05.310Z,100431.88
2023-02-22T16:24:33.563Z,100431.78
2023-02-22T16:27:18.795Z,100430.84
2023-02-22T16:30:01.697Z,100432.34
2023-02-22T16:32:28.826Z,100439.19
2023-02-22T16:34:55.248Z,100434.34
2023-02-22T16:37:23.163Z,100434.47
2023-02-22T16:39:53.558Z,100443.59
2023-02-22T16:42:24.069Z,100434.94
2023-02-22T16:44:52.285Z,100435.28
2023-02-22T16:47:20.344Z,100429.66
2023-02-22T16:49:52.730Z,100428.34
2023-02-22T16:52:20.363Z,100434.44
2023-02-22T16:54:47.277Z,100433.13
2023-02-22T16:57:18.634Z,100430.78
2023-02-22T16:59:48.167Z,100431.88
2023-02-22T17:02:16.620Z,100427.66
2023-02-22T17:04:49.561Z,100433.38
2023-02-22T17:07:23.687Z,100429.34
2023-02-22T17:09:51.116Z,100429.41
2023-02-22T17:12:18.221Z,100433.84
2023-02-22T17:14:46.022Z,100431.41
2023-02-22T17:17:13.598Z,100430.38
2023-02-22T17:19:41.715Z,100430.66
2023-02-22T17:22:19.283Z,100429.38
2023-02-22T17:24:46.168Z,100425.63
2023-02-22T17:27:16.097Z,100424.06
2023-02-22T17:29:44.078Z,100425.28
2023-02-22T17:32:13.556Z,100425.34
2023-02-22T17:34:40.724Z,100421.53
2023-02-22T17:37:07.120Z,100423.72
2023-02-22T17:39:33.655Z,100422.41
2023-02-22T17:42:00.056Z,100422.09
2023-02-22T17:44:27.696Z,100417.63
2023-02-22T17:46:57.094Z,100427.09
2023-02-22T17:49:23.513Z,100419.53
2023-02-22T17:51:53.181Z,100416.63
2023-02-22T17:54:19.729Z,100413.97
2023-02-22T17:56:46.150Z,100419.34
2023-02-22T17:59:12.627Z,100420.44
2023-02-22T18:01:39.184Z,100419.53
2023-02-22T18:04:08.932Z,100406.19
2023-02-22T18:06:38.898Z,100403.47
2023-02-22T18:09:10.429Z,100408.84
2023-02-22T18:11:38.371Z,100399.38
2023-02-22T18:14:10.158Z,100403.19
2023-02-22T18:16:39.734Z,100397.25
2023-02-22T18:19:06.236Z,100394.25
2023-02-22T18:21:32.763Z,100394.53
2023-02-22T18:23:59.696Z,100391.81
2023-02-22T18:26:26.743Z,100390.72
2023-02-22T18:28:53.748Z,100391.31
2023-02-22T18:31:21.914Z,100392.13
2023-02-22T18:33:51.103Z,100386.69
2023-02-22T18:36:23.393Z,100384.50
2023-02-22T18:38:52.304Z,100391.00
2023-02-22T18:41:20.539Z,100383.69
2023-02-22T18:43:47.300Z,100378.47
2023-02-22T18:46:17.845Z,100381.50
2023-02-22T18:48:46.571Z,100382.06
2023-02-22T18:51:15.191Z,100379.59
2023-02-22T18:53:47.926Z,100374.72
2023-02-22T18:56:17.859Z,100369.31
2023-02-22T18:58:44.452Z,100362.03
2023-02-22T19:01:18.539Z,100361.56
2023-02-22T19:03:47.110Z,100362.41
2023-02-22T19:06:15.350Z,100365.72
2023-02-22T19:08:44.115Z,100358.16
2023-02-22T19:11:17.718Z,100361.47
2023-02-22T19:13:48.333Z,100362.28
2023-02-22T19:16:17.231Z,100357.44
2023-02-22T19:18:44.111Z,100354.44
2023-02-22T19:21:12.527Z,100354.06
2023-02-22T19:23:45.859Z,100354.41
2023-02-22T19:26:18.717Z,100351.66
2023-02-22T19:28:46.912Z,100352.16
2023-02-22T19:31:18.631Z,100346.56
2023-02-22T19:33:47.497Z,100347.88
2023-02-22T19:36:15.893Z,100344.97
2023-02-22T19:38:43.902Z,100350.47
2023-02-22T19:41:18.298Z,100350.47
2023-02-22T19:43:49.496Z,100348.84
2023-02-22T19:46:18.828Z,100339.56
2023-02-22T19:48:45.751Z,100351.41
2023-02-22T19:51:15.292Z,100349.22
2023-02-22T19:53:43.286Z,100347.59
2023-02-22T19:56:12.397Z,100346.78
2023-02-22T19:58:40.781Z,100346.00
2023-02-22T20:01:23.039Z,100349.50
2023-02-22T20:03:54.102Z,100350.03
2023-02-22T20:06:22.986Z,100348.69
2023-02-22T20:08:50.944Z,100355.44
2023-02-22T20:11:17.616Z,100361.06
2023-02-22T20:13:45.042Z,100345.09
2023-02-22T20:16:15.478Z,100359.25
2023-02-22T20:18:43.677Z,100357.69
2023-02-22T20:21:13.880Z,100360.44
2023-02-22T20:23:44.146Z,100362.94
2023-02-22T20:26:16.909Z,100359.44
2023-02-22T20:28:43.346Z,100358.69
2023-02-22T20:31:13.597Z,100359.28
2023-02-22T20:33:41.664Z,100359.31
2023-02-22T20:36:10.705Z,100351.19
2023-02-22T20:38:37.855Z,100364.50
2023-02-22T20:41:09.209Z,100359.38
2023-02-22T20:43:35.897Z,100355.84
2023-02-22T20:46:03.728Z,100359.66
2023-02-22T20:48:30.296Z,100357.53
2023-02-22T20:50:57.043Z,100356.50
2023-02-22T20:53:24.025Z,100352.97
2023-02-22T20:55:51.909Z,100352.69
2023-02-22T20:58:22.874Z,100348.91
2023-02-22T21:00:49.521Z,100355.41
2023-02-22T21:03:16.366Z,100356.59
2023-02-22T21:05:46.722Z,100355.78
2023-02-22T21:08:15.447Z,100353.09
2023-02-22T21:10:43.456Z,100357.44
2023-02-22T21:13:11.502Z,100353.97
2023-02-22T21:15:43.380Z,100354.84
2023-02-22T21:18:10.958Z,100352.69
2023-02-22T21:20:43.494Z,100352.69
2023-02-22T21:23:11.028Z,100356.50
2023-02-22T21:25:38.066Z,100352.50
2023-02-22T21:28:05.317Z,100349.25
2023-02-22T21:30:32.919Z,100355.22
2023-02-22T21:32:59.437Z,100353.59
2023-02-22T21:35:26.070Z,100352.91
2023-02-22T21:37:52.475Z,100355.88
2023-02-22T21:40:19.315Z,100341.34
2023-02-22T21:42:49.300Z,100344.91
2023-02-22T21:45:18.441Z,100350.06
2023-02-22T21:47:48.656Z,100345.72
2023-02-22T21:50:16.764Z,100351.47
2023-02-22T21:52:48.396Z,100347.69
2023-02-22T21:55:15.838Z,100347.97
2023-02-22T21:57:42.443Z,100349.59
2023-02-22T22:00:28.987Z,100352.28
2023-02-22T22:03:11.745Z,100347.19
2023-02-22T22:05:39.202Z,100349.59
2023-02-22T22:08:08.482Z,100352.06
2023-02-22T22:10:36.188Z,100346.44
2023-02-22T22:13:02.600Z,100349.97
2023-02-22T22:15:31.490Z,100352.94
2023-02-22T22:18:05.385Z,100350.53
2023-02-22T22:20:32.826Z,100341.88
2023-02-22T22:22:59.358Z,100348.38
2023-02-22T22:25:28.217Z,100351.09
2023-02-22T22:27:56.606Z,100345.66
2023-02-22T22:30:23.865Z,100345.41
2023-02-22T22:32:51.345Z,100349.72
2023-02-22T22:35:18.162Z,100350.25
2023-02-22T22:37:51.095Z,100359.69
2023-02-22T22:40:19.337Z,100358.38
2023-02-22T22:42:46.433Z,100356.50
2023-02-22T22:45:17.061Z,100351.63
2023-02-22T22:47:47.043Z,100357.00
2023-02-22T22:50:26.221Z,100349.72
2023-02-22T22:52:55.369Z,100348.69
2023-02-22T22:55:24.152Z,100344.94
2023-02-22T22:57:51.883Z,100352.50
2023-02-22T23:00:32.819Z,100350.63
2023-02-22T23:02:59.325Z,100351.69
2023-02-22T23:05:30.413Z,100347.63
2023-02-22T23:07:57.329Z,100352.56
2023-02-22T23:10:27.199Z,100352.03
2023-02-22T23:12:55.679Z,100346.84
2023-02-22T23:15:24.552Z,100346.28
2023-02-22T23:17:59.091Z,100352.97
2023-02-22T23:20:26.509Z,100346.47
2023-02-22T23:22:54.459Z,100350.59
2023-02-22T23:25:21.820Z,100348.16
2023-02-22T23:27:49.278Z,100342.50
2023-02-22T23:30:18.532Z,100347.34
2023-02-22T23:32:49.515Z,100344.09
2023-02-22T23:35:18.898Z,100347.56
2023-02-22T23:37:50.074Z,100349.72
2023-02-22T23:40:17.006Z,100343.78
2023-02-22T23:42:48.939Z,100342.75
2023-02-22T23:45:24.360Z,100343.28
2023-02-22T23:48:00.705Z,100338.69
2023-02-22T23:50:29.659Z,100346.81
2023-02-22T23:52:59.107Z,100347.38
2023-02-22T23:55:31.609Z,100344.41
2023-02-22T23:57:59.454Z,100347.13
